sensor_id;sensor_type;location;lat;lon;timestamp;P1;durP1;ratioP1;P2;durP2;ratioP2
35114;SDS011;21292;52.416;13.046;2024-03-02T00:00:17;106.93;;;43.65;;
35114;SDS011;21292;52.416;13.046;2024-03-02T00:02:48;98.78;;;41.58;;
35114;SDS011;21292;52.416;13.046;2024-03-02T00:05:19;109.18;;;42.15;;
35114;SDS011;21292;52.416;13.046;2024-03-02T00:07:52;96.35;;;42.38;;
35114;SDS011;21292;52.416;13.046;2024-03-02T00:10:21;100.60;;;42.53;;
35114;SDS011;21292;52.416;13.046;2024-03-02T00:12:52;90.18;;;40.92;;
35114;SDS011;21292;52.416;13.046;2024-03-02T00:15:26;89.80;;;41.97;;
35114;SDS011;21292;52.416;13.046;2024-03-02T00:18:08;96.35;;;42.67;;
35114;SDS011;21292;52.416;13.046;2024-03-02T00:20:40;90.95;;;41.90;;
35114;SDS011;21292;52.416;13.046;2024-03-02T00:23:09;95.22;;;42.53;;
35114;SDS011;21292;52.416;13.046;2024-03-02T00:25:38;93.82;;;43.45;;
35114;SDS011;21292;52.416;13.046;2024-03-02T00:28:19;92.25;;;43.10;;
35114;SDS011;21292;52.416;13.046;2024-03-02T00:30:51;97.18;;;42.33;;
35114;SDS011;21292;52.416;13.046;2024-03-02T00:33:19;94.40;;;41.17;;
35114;SDS011;21292;52.416;13.046;2024-03-02T00:35:53;96.47;;;41.83;;
35114;SDS011;21292;52.416;13.046;2024-03-02T00:38:22;95.55;;;41.85;;
35114;SDS011;21292;52.416;13.046;2024-03-02T00:40:50;101.82;;;42.90;;
35114;SDS011;21292;52.416;13.046;2024-03-02T00:43:29;92.00;;;41.65;;
35114;SDS011;21292;52.416;13.046;2024-03-02T00:46:17;92.53;;;41.08;;
35114;SDS011;21292;52.416;13.046;2024-03-02T00:48:54;98.00;;;43.67;;
35114;SDS011;21292;52.416;13.046;2024-03-02T00:51:44;94.72;;;43.10;;
35114;SDS011;21292;52.416;13.046;2024-03-02T00:54:33;106.30;;;43.42;;
35114;SDS011;21292;52.416;13.046;2024-03-02T00:57:01;104.10;;;45.67;;
35114;SDS011;21292;52.416;13.046;2024-03-02T00:59:30;100.13;;;44.17;;
35114;SDS011;21292;52.416;13.046;2024-03-02T01:01:58;114.60;;;46.10;;
35114;SDS011;21292;52.416;13.046;2024-03-02T01:04:26;102.05;;;43.58;;
35114;SDS011;21292;52.416;13.046;2024-03-02T01:06:56;116.25;;;46.60;;
35114;SDS011;21292;52.416;13.046;2024-03-02T01:09:25;106.28;;;45.40;;
35114;SDS011;21292;52.416;13.046;2024-03-02T01:11:53;108.25;;;47.30;;
35114;SDS011;21292;52.416;13.046;2024-03-02T01:14:21;111.97;;;44.17;;
35114;SDS011;21292;52.416;13.046;2024-03-02T01:16:50;112.43;;;45.70;;
35114;SDS011;21292;52.416;13.046;2024-03-02T01:21:47;108.95;;;45.80;;
35114;SDS011;21292;52.416;13.046;2024-03-02T01:24:18;110.97;;;47.40;;
35114;SDS011;21292;52.416;13.046;2024-03-02T01:26:47;122.97;;;48.53;;
35114;SDS011;21292;52.416;13.046;2024-03-02T01:29:15;105.10;;;46.15;;
35114;SDS011;21292;52.416;13.046;2024-03-02T01:31:43;110.15;;;47.25;;
35114;SDS011;21292;52.416;13.046;2024-03-02T01:34:11;109.13;;;46.88;;
35114;SDS011;21292;52.416;13.046;2024-03-02T01:36:40;121.53;;;47.63;;
35114;SDS011;21292;52.416;13.046;2024-03-02T01:39:08;118.50;;;48.45;;
35114;SDS011;21292;52.416;13.046;2024-03-02T01:41:37;114.40;;;48.70;;
35114;SDS011;21292;52.416;13.046;2024-03-02T01:44:09;118.85;;;47.35;;
35114;SDS011;21292;52.416;13.046;2024-03-02T01:46:37;113.78;;;45.78;;
35114;SDS011;21292;52.416;13.046;2024-03-02T01:49:05;117.60;;;48.80;;
35114;SDS011;21292;52.416;13.046;2024-03-02T01:51:34;114.40;;;49.80;;
35114;SDS011;21292;52.416;13.046;2024-03-02T01:54:02;120.47;;;48.97;;
35114;SDS011;21292;52.416;13.046;2024-03-02T01:56:30;124.22;;;49.08;;
35114;SDS011;21292;52.416;13.046;2024-03-02T01:58:59;114.82;;;48.95;;
35114;SDS011;21292;52.416;13.046;2024-03-02T02:01:27;117.00;;;47.97;;
35114;SDS011;21292;52.416;13.046;2024-03-02T02:03:58;111.15;;;46.88;;
35114;SDS011;21292;52.416;13.046;2024-03-02T02:06:26;121.63;;;48.63;;
35114;SDS011;21292;52.416;13.046;2024-03-02T02:08:54;127.47;;;48.17;;
35114;SDS011;21292;52.416;13.046;2024-03-02T02:11:22;118.57;;;49.08;;
35114;SDS011;21292;52.416;13.046;2024-03-02T02:13:50;124.90;;;50.80;;
35114;SDS011;21292;52.416;13.046;2024-03-02T02:16:20;110.70;;;47.88;;
35114;SDS011;21292;52.416;13.046;2024-03-02T02:18:48;128.10;;;50.58;;
35114;SDS011;21292;52.416;13.046;2024-03-02T02:21:16;134.10;;;53.70;;
35114;SDS011;21292;52.416;13.046;2024-03-02T02:23:45;144.73;;;51.47;;
35114;SDS011;21292;52.416;13.046;2024-03-02T02:26:15;151.18;;;57.10;;
35114;SDS011;21292;52.416;13.046;2024-03-02T02:28:43;145.05;;;54.30;;
35114;SDS011;21292;52.416;13.046;2024-03-02T02:31:13;144.50;;;55.28;;
35114;SDS011;21292;52.416;13.046;2024-03-02T02:33:42;143.98;;;55.92;;
35114;SDS011;21292;52.416;13.046;2024-03-02T02:36:10;146.18;;;54.00;;
35114;SDS011;21292;52.416;13.046;2024-03-02T02:38:38;160.10;;;56.28;;
35114;SDS011;21292;52.416;13.046;2024-03-02T02:41:10;151.82;;;58.15;;
35114;SDS011;21292;52.416;13.046;2024-03-02T02:43:38;152.48;;;56.05;;
35114;SDS011;21292;52.416;13.046;2024-03-02T02:46:06;144.02;;;55.03;;
35114;SDS011;21292;52.416;13.046;2024-03-02T02:48:34;153.25;;;56.08;;
35114;SDS011;21292;52.416;13.046;2024-03-02T02:51:03;145.50;;;56.35;;
35114;SDS011;21292;52.416;13.046;2024-03-02T02:53:31;148.93;;;55.13;;
35114;SDS011;21292;52.416;13.046;2024-03-02T02:55:59;154.90;;;55.42;;
35114;SDS011;21292;52.416;13.046;2024-03-02T02:58:29;151.60;;;57.15;;
35114;SDS011;21292;52.416;13.046;2024-03-02T03:00:57;152.40;;;57.17;;
35114;SDS011;21292;52.416;13.046;2024-03-02T03:03:25;159.68;;;56.80;;
35114;SDS011;21292;52.416;13.046;2024-03-02T03:05:53;162.23;;;60.78;;
35114;SDS011;21292;52.416;13.046;2024-03-02T03:08:22;168.48;;;61.38;;
35114;SDS011;21292;52.416;13.046;2024-03-02T03:10:51;162.63;;;59.83;;
35114;SDS011;21292;52.416;13.046;2024-03-02T03:13:19;161.27;;;61.83;;
35114;SDS011;21292;52.416;13.046;2024-03-02T03:15:48;170.25;;;60.75;;
35114;SDS011;21292;52.416;13.046;2024-03-02T03:18:16;174.73;;;62.45;;
35114;SDS011;21292;52.416;13.046;2024-03-02T03:20:45;178.05;;;63.28;;
35114;SDS011;21292;52.416;13.046;2024-03-02T03:23:14;164.60;;;62.85;;
35114;SDS011;21292;52.416;13.046;2024-03-02T03:25:43;170.68;;;66.18;;
35114;SDS011;21292;52.416;13.046;2024-03-02T03:28:12;181.40;;;67.03;;
35114;SDS011;21292;52.416;13.046;2024-03-02T03:30:40;186.80;;;67.53;;
35114;SDS011;21292;52.416;13.046;2024-03-02T03:33:09;185.00;;;68.93;;
35114;SDS011;21292;52.416;13.046;2024-03-02T03:35:37;195.55;;;72.50;;
35114;SDS011;21292;52.416;13.046;2024-03-02T03:38:05;197.30;;;69.75;;
35114;SDS011;21292;52.416;13.046;2024-03-02T03:40:33;177.48;;;67.35;;
35114;SDS011;21292;52.416;13.046;2024-03-02T03:43:01;193.32;;;67.07;;
35114;SDS011;21292;52.416;13.046;2024-03-02T03:45:30;195.13;;;68.78;;
35114;SDS011;21292;52.416;13.046;2024-03-02T03:47:58;204.00;;;70.85;;
35114;SDS011;21292;52.416;13.046;2024-03-02T03:50:27;198.50;;;70.15;;
35114;SDS011;21292;52.416;13.046;2024-03-02T03:52:55;195.02;;;71.55;;
35114;SDS011;21292;52.416;13.046;2024-03-02T03:55:24;180.02;;;69.88;;
35114;SDS011;21292;52.416;13.046;2024-03-02T03:57:52;197.38;;;70.43;;
35114;SDS011;21292;52.416;13.046;2024-03-02T04:00:20;184.38;;;69.57;;
35114;SDS011;21292;52.416;13.046;2024-03-02T04:02:48;190.98;;;70.85;;
35114;SDS011;21292;52.416;13.046;2024-03-02T04:05:17;186.57;;;69.70;;
35114;SDS011;21292;52.416;13.046;2024-03-02T04:07:46;190.88;;;69.00;;
35114;SDS011;21292;52.416;13.046;2024-03-02T04:10:15;202.20;;;72.78;;
35114;SDS011;21292;52.416;13.046;2024-03-02T04:12:43;205.98;;;70.18;;
35114;SDS011;21292;52.416;13.046;2024-03-02T04:15:11;202.02;;;70.50;;
35114;SDS011;21292;52.416;13.046;2024-03-02T04:17:39;186.52;;;67.97;;
35114;SDS011;21292;52.416;13.046;2024-03-02T04:20:08;192.57;;;69.65;;
35114;SDS011;21292;52.416;13.046;2024-03-02T04:22:39;195.27;;;67.00;;
35114;SDS011;21292;52.416;13.046;2024-03-02T04:25:09;203.68;;;70.05;;
35114;SDS011;21292;52.416;13.046;2024-03-02T04:27:37;203.90;;;70.13;;
35114;SDS011;21292;52.416;13.046;2024-03-02T04:30:05;191.80;;;68.22;;
35114;SDS011;21292;52.416;13.046;2024-03-02T04:32:34;207.73;;;72.25;;
35114;SDS011;21292;52.416;13.046;2024-03-02T04:35:03;201.95;;;72.07;;
35114;SDS011;21292;52.416;13.046;2024-03-02T04:37:34;199.45;;;72.05;;
35114;SDS011;21292;52.416;13.046;2024-03-02T04:40:02;200.80;;;71.03;;
35114;SDS011;21292;52.416;13.046;2024-03-02T04:42:32;209.73;;;71.25;;
35114;SDS011;21292;52.416;13.046;2024-03-02T04:45:01;209.60;;;72.90;;
35114;SDS011;21292;52.416;13.046;2024-03-02T04:47:30;199.52;;;69.05;;
35114;SDS011;21292;52.416;13.046;2024-03-02T04:49:58;203.20;;;71.93;;
35114;SDS011;21292;52.416;13.046;2024-03-02T04:52:26;206.50;;;74.55;;
35114;SDS011;21292;52.416;13.046;2024-03-02T04:54:54;213.68;;;74.60;;
35114;SDS011;21292;52.416;13.046;2024-03-02T04:57:48;207.52;;;75.30;;
35114;SDS011;21292;52.416;13.046;2024-03-02T05:00:17;207.88;;;72.43;;
35114;SDS011;21292;52.416;13.046;2024-03-02T05:02:46;210.38;;;73.75;;
35114;SDS011;21292;52.416;13.046;2024-03-02T05:05:16;224.15;;;77.28;;
35114;SDS011;21292;52.416;13.046;2024-03-02T05:07:44;229.32;;;75.05;;
35114;SDS011;21292;52.416;13.046;2024-03-02T05:10:12;209.10;;;73.30;;
35114;SDS011;21292;52.416;13.046;2024-03-02T05:12:41;210.63;;;74.70;;
35114;SDS011;21292;52.416;13.046;2024-03-02T05:15:25;225.02;;;73.70;;
35114;SDS011;21292;52.416;13.046;2024-03-02T05:17:53;229.15;;;74.28;;
35114;SDS011;21292;52.416;13.046;2024-03-02T05:20:24;219.82;;;74.28;;
35114;SDS011;21292;52.416;13.046;2024-03-02T05:22:52;228.65;;;73.22;;
35114;SDS011;21292;52.416;13.046;2024-03-02T05:25:20;215.98;;;72.82;;
35114;SDS011;21292;52.416;13.046;2024-03-02T05:27:48;202.60;;;72.07;;
35114;SDS011;21292;52.416;13.046;2024-03-02T05:30:16;204.48;;;71.88;;
35114;SDS011;21292;52.416;13.046;2024-03-02T05:32:46;227.38;;;75.70;;
35114;SDS011;21292;52.416;13.046;2024-03-02T05:35:14;204.75;;;70.32;;
35114;SDS011;21292;52.416;13.046;2024-03-02T05:37:42;223.50;;;73.10;;
35114;SDS011;21292;52.416;13.046;2024-03-02T05:40:10;222.23;;;73.47;;
35114;SDS011;21292;52.416;13.046;2024-03-02T05:42:39;207.40;;;71.72;;
35114;SDS011;21292;52.416;13.046;2024-03-02T05:45:08;219.55;;;72.97;;
35114;SDS011;21292;52.416;13.046;2024-03-02T05:47:39;199.77;;;72.22;;
35114;SDS011;21292;52.416;13.046;2024-03-02T05:50:09;224.98;;;73.72;;
35114;SDS011;21292;52.416;13.046;2024-03-02T05:52:37;231.90;;;76.35;;
35114;SDS011;21292;52.416;13.046;2024-03-02T05:55:07;228.30;;;70.30;;
35114;SDS011;21292;52.416;13.046;2024-03-02T05:57:35;215.23;;;75.03;;
35114;SDS011;21292;52.416;13.046;2024-03-02T06:00:16;224.90;;;74.10;;
35114;SDS011;21292;52.416;13.046;2024-03-02T06:02:45;234.35;;;76.30;;
35114;SDS011;21292;52.416;13.046;2024-03-02T06:05:14;228.32;;;74.00;;
35114;SDS011;21292;52.416;13.046;2024-03-02T06:07:43;232.80;;;72.22;;
35114;SDS011;21292;52.416;13.046;2024-03-02T06:10:12;243.48;;;75.93;;
35114;SDS011;21292;52.416;13.046;2024-03-02T06:12:41;233.43;;;75.43;;
35114;SDS011;21292;52.416;13.046;2024-03-02T06:15:09;213.88;;;72.47;;
35114;SDS011;21292;52.416;13.046;2024-03-02T06:17:38;227.05;;;75.68;;
35114;SDS011;21292;52.416;13.046;2024-03-02T06:20:06;236.32;;;76.15;;
35114;SDS011;21292;52.416;13.046;2024-03-02T06:22:37;216.23;;;72.88;;
35114;SDS011;21292;52.416;13.046;2024-03-02T06:25:05;223.05;;;73.35;;
35114;SDS011;21292;52.416;13.046;2024-03-02T06:27:34;210.88;;;72.80;;
35114;SDS011;21292;52.416;13.046;2024-03-02T06:30:02;216.23;;;72.47;;
35114;SDS011;21292;52.416;13.046;2024-03-02T06:32:31;209.95;;;70.22;;
35114;SDS011;21292;52.416;13.046;2024-03-02T06:35:08;218.68;;;73.32;;
35114;SDS011;21292;52.416;13.046;2024-03-02T06:37:38;206.82;;;71.80;;
35114;SDS011;21292;52.416;13.046;2024-03-02T06:40:07;225.45;;;72.75;;
35114;SDS011;21292;52.416;13.046;2024-03-02T06:42:36;218.98;;;72.03;;
35114;SDS011;21292;52.416;13.046;2024-03-02T06:45:04;203.32;;;71.35;;
35114;SDS011;21292;52.416;13.046;2024-03-02T06:47:34;226.27;;;71.97;;
35114;SDS011;21292;52.416;13.046;2024-03-02T06:50:02;223.70;;;71.82;;
35114;SDS011;21292;52.416;13.046;2024-03-02T06:52:31;214.85;;;71.38;;
35114;SDS011;21292;52.416;13.046;2024-03-02T06:55:01;213.30;;;72.28;;
35114;SDS011;21292;52.416;13.046;2024-03-02T06:57:31;221.90;;;72.28;;
35114;SDS011;21292;52.416;13.046;2024-03-02T06:59:59;226.32;;;73.43;;
35114;SDS011;21292;52.416;13.046;2024-03-02T07:02:27;230.23;;;73.22;;
35114;SDS011;21292;52.416;13.046;2024-03-02T07:04:55;223.30;;;72.65;;
35114;SDS011;21292;52.416;13.046;2024-03-02T07:07:23;215.63;;;71.13;;
35114;SDS011;21292;52.416;13.046;2024-03-02T07:09:51;206.15;;;70.25;;
35114;SDS011;21292;52.416;13.046;2024-03-02T07:12:21;229.95;;;72.32;;
35114;SDS011;21292;52.416;13.046;2024-03-02T07:14:50;222.32;;;72.68;;
35114;SDS011;21292;52.416;13.046;2024-03-02T07:17:34;214.88;;;75.30;;
35114;SDS011;21292;52.416;13.046;2024-03-02T07:20:04;230.30;;;74.57;;
35114;SDS011;21292;52.416;13.046;2024-03-02T07:22:33;222.20;;;72.75;;
35114;SDS011;21292;52.416;13.046;2024-03-02T07:25:01;223.88;;;73.00;;
35114;SDS011;21292;52.416;13.046;2024-03-02T07:27:31;207.60;;;70.55;;
35114;SDS011;21292;52.416;13.046;2024-03-02T07:30:00;211.38;;;71.78;;
35114;SDS011;21292;52.416;13.046;2024-03-02T07:32:28;222.88;;;70.50;;
35114;SDS011;21292;52.416;13.046;2024-03-02T07:34:59;237.05;;;75.97;;
35114;SDS011;21292;52.416;13.046;2024-03-02T07:37:43;223.85;;;72.05;;
35114;SDS011;21292;52.416;13.046;2024-03-02T07:40:12;206.60;;;71.85;;
35114;SDS011;21292;52.416;13.046;2024-03-02T07:42:45;221.82;;;72.50;;
35114;SDS011;21292;52.416;13.046;2024-03-02T07:45:14;216.45;;;72.70;;
35114;SDS011;21292;52.416;13.046;2024-03-02T07:47:42;213.25;;;72.38;;
35114;SDS011;21292;52.416;13.046;2024-03-02T07:50:11;204.88;;;71.78;;
35114;SDS011;21292;52.416;13.046;2024-03-02T07:52:40;214.05;;;74.63;;
35114;SDS011;21292;52.416;13.046;2024-03-02T07:55:08;215.10;;;69.57;;
35114;SDS011;21292;52.416;13.046;2024-03-02T07:57:39;215.57;;;73.75;;
35114;SDS011;21292;52.416;13.046;2024-03-02T08:00:10;221.65;;;70.72;;
35114;SDS011;21292;52.416;13.046;2024-03-02T08:02:39;217.15;;;73.35;;
35114;SDS011;21292;52.416;13.046;2024-03-02T08:05:09;225.27;;;71.80;;
35114;SDS011;21292;52.416;13.046;2024-03-02T08:07:37;219.27;;;73.38;;
35114;SDS011;21292;52.416;13.046;2024-03-02T08:10:08;215.68;;;67.82;;
35114;SDS011;21292;52.416;13.046;2024-03-02T08:12:41;232.13;;;72.18;;
35114;SDS011;21292;52.416;13.046;2024-03-02T08:15:11;237.73;;;72.38;;
35114;SDS011;21292;52.416;13.046;2024-03-02T08:17:40;240.88;;;74.93;;
35114;SDS011;21292;52.416;13.046;2024-03-02T08:20:11;237.05;;;76.88;;
35114;SDS011;21292;52.416;13.046;2024-03-02T08:22:40;231.70;;;75.07;;
35114;SDS011;21292;52.416;13.046;2024-03-02T08:25:08;226.25;;;73.55;;
35114;SDS011;21292;52.416;13.046;2024-03-02T08:27:37;231.43;;;76.05;;
35114;SDS011;21292;52.416;13.046;2024-03-02T08:30:06;219.38;;;71.72;;
35114;SDS011;21292;52.416;13.046;2024-03-02T08:32:38;235.68;;;73.20;;
35114;SDS011;21292;52.416;13.046;2024-03-02T08:35:08;231.85;;;72.75;;
35114;SDS011;21292;52.416;13.046;2024-03-02T08:37:37;206.55;;;69.70;;
35114;SDS011;21292;52.416;13.046;2024-03-02T08:40:08;225.75;;;70.88;;
35114;SDS011;21292;52.416;13.046;2024-03-02T08:42:42;222.70;;;71.97;;
35114;SDS011;21292;52.416;13.046;2024-03-02T08:45:14;214.07;;;69.95;;
35114;SDS011;21292;52.416;13.046;2024-03-02T08:47:47;200.50;;;67.50;;
35114;SDS011;21292;52.416;13.046;2024-03-02T08:50:16;200.32;;;70.15;;
35114;SDS011;21292;52.416;13.046;2024-03-02T08:52:44;223.95;;;69.88;;
35114;SDS011;21292;52.416;13.046;2024-03-02T08:55:14;217.63;;;70.03;;
35114;SDS011;21292;52.416;13.046;2024-03-02T08:57:42;196.25;;;69.45;;
35114;SDS011;21292;52.416;13.046;2024-03-02T09:00:13;203.32;;;70.90;;
35114;SDS011;21292;52.416;13.046;2024-03-02T09:02:41;222.38;;;74.28;;
35114;SDS011;21292;52.416;13.046;2024-03-02T09:05:11;227.82;;;93.45;;
35114;SDS011;21292;52.416;13.046;2024-03-02T09:07:39;290.60;;;115.00;;
35114;SDS011;21292;52.416;13.046;2024-03-02T09:10:09;250.35;;;83.03;;
35114;SDS011;21292;52.416;13.046;2024-03-02T09:12:40;255.77;;;85.22;;
35114;SDS011;21292;52.416;13.046;2024-03-02T09:15:10;179.48;;;72.00;;
35114;SDS011;21292;52.416;13.046;2024-03-02T09:17:39;131.80;;;56.13;;
35114;SDS011;21292;52.416;13.046;2024-03-02T09:20:07;120.93;;;53.38;;
35114;SDS011;21292;52.416;13.046;2024-03-02T09:22:37;105.20;;;49.08;;
35114;SDS011;21292;52.416;13.046;2024-03-02T09:25:10;99.72;;;47.45;;
35114;SDS011;21292;52.416;13.046;2024-03-02T09:27:39;76.85;;;37.85;;
35114;SDS011;21292;52.416;13.046;2024-03-02T09:30:12;76.68;;;40.15;;
35114;SDS011;21292;52.416;13.046;2024-03-02T09:32:44;82.37;;;40.73;;
35114;SDS011;21292;52.416;13.046;2024-03-02T09:35:16;85.18;;;42.05;;
35114;SDS011;21292;52.416;13.046;2024-03-02T09:37:46;85.68;;;41.00;;
35114;SDS011;21292;52.416;13.046;2024-03-02T09:40:14;90.20;;;41.78;;
35114;SDS011;21292;52.416;13.046;2024-03-02T09:42:43;83.53;;;44.35;;
35114;SDS011;21292;52.416;13.046;2024-03-02T09:45:18;94.30;;;41.65;;
35114;SDS011;21292;52.416;13.046;2024-03-02T09:47:51;100.63;;;43.50;;
35114;SDS011;21292;52.416;13.046;2024-03-02T09:50:19;97.10;;;43.63;;
35114;SDS011;21292;52.416;13.046;2024-03-02T09:52:54;86.50;;;43.30;;
35114;SDS011;21292;52.416;13.046;2024-03-02T09:55:23;101.03;;;42.95;;
35114;SDS011;21292;52.416;13.046;2024-03-02T09:57:55;97.07;;;44.08;;
35114;SDS011;21292;52.416;13.046;2024-03-02T10:00:24;84.93;;;41.60;;
35114;SDS011;21292;52.416;13.046;2024-03-02T10:02:54;87.43;;;40.95;;
35114;SDS011;21292;52.416;13.046;2024-03-02T10:05:26;81.72;;;40.58;;
35114;SDS011;21292;52.416;13.046;2024-03-02T10:08:00;80.03;;;38.22;;
35114;SDS011;21292;52.416;13.046;2024-03-02T10:10:34;74.45;;;37.40;;
35114;SDS011;21292;52.416;13.046;2024-03-02T10:13:07;79.13;;;38.80;;
35114;SDS011;21292;52.416;13.046;2024-03-02T10:15:37;75.03;;;40.17;;
35114;SDS011;21292;52.416;13.046;2024-03-02T10:18:08;78.50;;;36.00;;
35114;SDS011;21292;52.416;13.046;2024-03-02T10:20:39;78.18;;;38.85;;
35114;SDS011;21292;52.416;13.046;2024-03-02T10:23:12;68.82;;;35.08;;
35114;SDS011;21292;52.416;13.046;2024-03-02T10:25:41;64.47;;;34.88;;
35114;SDS011;21292;52.416;13.046;2024-03-02T10:28:23;71.18;;;34.72;;
35114;SDS011;21292;52.416;13.046;2024-03-02T10:30:54;66.60;;;34.88;;
35114;SDS011;21292;52.416;13.046;2024-03-02T10:33:27;65.55;;;34.67;;
35114;SDS011;21292;52.416;13.046;2024-03-02T10:35:56;66.50;;;33.10;;
35114;SDS011;21292;52.416;13.046;2024-03-02T10:38:40;56.40;;;30.25;;
35114;SDS011;21292;52.416;13.046;2024-03-02T10:41:09;61.78;;;29.75;;
35114;SDS011;21292;52.416;13.046;2024-03-02T10:43:38;55.95;;;30.67;;
35114;SDS011;21292;52.416;13.046;2024-03-02T10:46:09;60.20;;;30.75;;
35114;SDS011;21292;52.416;13.046;2024-03-02T10:48:38;62.45;;;31.42;;
35114;SDS011;21292;52.416;13.046;2024-03-02T10:51:09;52.42;;;27.27;;
35114;SDS011;21292;52.416;13.046;2024-03-02T10:53:42;53.10;;;27.88;;
35114;SDS011;21292;52.416;13.046;2024-03-02T10:56:13;51.10;;;26.75;;
35114;SDS011;21292;52.416;13.046;2024-03-02T10:58:44;49.88;;;26.63;;
35114;SDS011;21292;52.416;13.046;2024-03-02T11:01:16;58.47;;;28.38;;
35114;SDS011;21292;52.416;13.046;2024-03-02T11:03:45;50.58;;;27.17;;
35114;SDS011;21292;52.416;13.046;2024-03-02T11:06:14;51.42;;;26.90;;
35114;SDS011;21292;52.416;13.046;2024-03-02T11:08:44;48.45;;;26.52;;
35114;SDS011;21292;52.416;13.046;2024-03-02T11:11:14;46.40;;;26.80;;
35114;SDS011;21292;52.416;13.046;2024-03-02T11:13:50;53.63;;;26.13;;
35114;SDS011;21292;52.416;13.046;2024-03-02T11:16:20;46.05;;;23.77;;
35114;SDS011;21292;52.416;13.046;2024-03-02T11:19:02;51.58;;;26.15;;
35114;SDS011;21292;52.416;13.046;2024-03-02T11:21:33;43.97;;;24.45;;
35114;SDS011;21292;52.416;13.046;2024-03-02T11:24:14;51.80;;;27.73;;
35114;SDS011;21292;52.416;13.046;2024-03-02T11:27:06;49.17;;;25.45;;
35114;SDS011;21292;52.416;13.046;2024-03-02T11:29:44;46.25;;;25.88;;
35114;SDS011;21292;52.416;13.046;2024-03-02T11:32:15;48.75;;;26.65;;
35114;SDS011;21292;52.416;13.046;2024-03-02T11:34:45;42.08;;;24.48;;
35114;SDS011;21292;52.416;13.046;2024-03-02T11:37:16;47.72;;;24.20;;
35114;SDS011;21292;52.416;13.046;2024-03-02T11:39:51;46.65;;;24.10;;
35114;SDS011;21292;52.416;13.046;2024-03-02T11:42:20;42.00;;;24.95;;
35114;SDS011;21292;52.416;13.046;2024-03-02T11:44:49;46.10;;;24.73;;
35114;SDS011;21292;52.416;13.046;2024-03-02T11:47:17;40.50;;;23.25;;
35114;SDS011;21292;52.416;13.046;2024-03-02T11:49:45;45.65;;;23.92;;
35114;SDS011;21292;52.416;13.046;2024-03-02T11:52:14;46.70;;;22.70;;
35114;SDS011;21292;52.416;13.046;2024-03-02T11:54:48;41.40;;;22.58;;
35114;SDS011;21292;52.416;13.046;2024-03-02T11:57:20;43.85;;;21.67;;
35114;SDS011;21292;52.416;13.046;2024-03-02T11:59:49;41.03;;;22.50;;
35114;SDS011;21292;52.416;13.046;2024-03-02T12:02:18;41.30;;;21.60;;
35114;SDS011;21292;52.416;13.046;2024-03-02T12:04:48;39.83;;;21.63;;
35114;SDS011;21292;52.416;13.046;2024-03-02T12:07:18;39.97;;;21.65;;
35114;SDS011;21292;52.416;13.046;2024-03-02T12:09:48;35.88;;;20.63;;
35114;SDS011;21292;52.416;13.046;2024-03-02T12:12:17;41.20;;;21.83;;
35114;SDS011;21292;52.416;13.046;2024-03-02T12:14:52;38.70;;;20.88;;
35114;SDS011;21292;52.416;13.046;2024-03-02T12:17:22;40.95;;;21.08;;
35114;SDS011;21292;52.416;13.046;2024-03-02T12:19:50;34.75;;;19.52;;
35114;SDS011;21292;52.416;13.046;2024-03-02T12:22:19;28.92;;;17.50;;
35114;SDS011;21292;52.416;13.046;2024-03-02T12:24:49;33.70;;;18.58;;
35114;SDS011;21292;52.416;13.046;2024-03-02T12:27:17;36.95;;;19.55;;
35114;SDS011;21292;52.416;13.046;2024-03-02T12:29:48;34.03;;;19.65;;
35114;SDS011;21292;52.416;13.046;2024-03-02T12:32:19;39.13;;;21.55;;
35114;SDS011;21292;52.416;13.046;2024-03-02T12:34:48;35.45;;;20.45;;
35114;SDS011;21292;52.416;13.046;2024-03-02T12:37:19;36.15;;;20.10;;
35114;SDS011;21292;52.416;13.046;2024-03-02T12:39:48;40.83;;;20.55;;
35114;SDS011;21292;52.416;13.046;2024-03-02T12:42:16;37.60;;;20.83;;
35114;SDS011;21292;52.416;13.046;2024-03-02T12:44:44;31.20;;;18.95;;
35114;SDS011;21292;52.416;13.046;2024-03-02T12:47:12;37.38;;;18.95;;
35114;SDS011;21292;52.416;13.046;2024-03-02T12:49:42;33.55;;;19.30;;
35114;SDS011;21292;52.416;13.046;2024-03-02T12:52:11;31.92;;;17.52;;
35114;SDS011;21292;52.416;13.046;2024-03-02T12:54:40;31.50;;;16.85;;
35114;SDS011;21292;52.416;13.046;2024-03-02T12:57:08;31.10;;;18.13;;
35114;SDS011;21292;52.416;13.046;2024-03-02T12:59:36;32.20;;;18.20;;
35114;SDS011;21292;52.416;13.046;2024-03-02T13:02:04;30.77;;;18.98;;
35114;SDS011;21292;52.416;13.046;2024-03-02T13:04:33;34.80;;;18.30;;
35114;SDS011;21292;52.416;13.046;2024-03-02T13:07:03;37.50;;;20.05;;
35114;SDS011;21292;52.416;13.046;2024-03-02T13:09:32;36.95;;;19.80;;
35114;SDS011;21292;52.416;13.046;2024-03-02T13:12:01;33.15;;;18.70;;
35114;SDS011;21292;52.416;13.046;2024-03-02T13:14:32;31.35;;;19.05;;
35114;SDS011;21292;52.416;13.046;2024-03-02T13:17:00;35.95;;;20.15;;
35114;SDS011;21292;52.416;13.046;2024-03-02T13:19:31;34.80;;;19.08;;
35114;SDS011;21292;52.416;13.046;2024-03-02T13:21:59;34.75;;;17.95;;
35114;SDS011;21292;52.416;13.046;2024-03-02T13:24:30;32.28;;;16.95;;
35114;SDS011;21292;52.416;13.046;2024-03-02T13:26:59;30.88;;;17.60;;
35114;SDS011;21292;52.416;13.046;2024-03-02T13:29:30;31.40;;;18.35;;
35114;SDS011;21292;52.416;13.046;2024-03-02T13:31:59;30.48;;;16.80;;
35114;SDS011;21292;52.416;13.046;2024-03-02T13:34:28;30.52;;;15.73;;
35114;SDS011;21292;52.416;13.046;2024-03-02T13:36:58;28.52;;;16.30;;
35114;SDS011;21292;52.416;13.046;2024-03-02T13:39:28;29.85;;;16.27;;
35114;SDS011;21292;52.416;13.046;2024-03-02T13:41:59;26.30;;;16.55;;
35114;SDS011;21292;52.416;13.046;2024-03-02T13:44:31;31.52;;;17.77;;
35114;SDS011;21292;52.416;13.046;2024-03-02T13:46:59;31.80;;;17.20;;
35114;SDS011;21292;52.416;13.046;2024-03-02T13:49:27;30.08;;;17.98;;
35114;SDS011;21292;52.416;13.046;2024-03-02T13:52:02;28.15;;;17.10;;
35114;SDS011;21292;52.416;13.046;2024-03-02T13:54:37;34.17;;;18.02;;
35114;SDS011;21292;52.416;13.046;2024-03-02T13:57:08;35.53;;;18.30;;
35114;SDS011;21292;52.416;13.046;2024-03-02T13:59:37;32.60;;;17.20;;
35114;SDS011;21292;52.416;13.046;2024-03-02T14:02:06;34.42;;;17.75;;
35114;SDS011;21292;52.416;13.046;2024-03-02T14:04:34;28.98;;;16.77;;
35114;SDS011;21292;52.416;13.046;2024-03-02T14:07:03;30.13;;;17.27;;
35114;SDS011;21292;52.416;13.046;2024-03-02T14:09:34;29.90;;;16.25;;
35114;SDS011;21292;52.416;13.046;2024-03-02T14:12:03;31.63;;;16.73;;
35114;SDS011;21292;52.416;13.046;2024-03-02T14:14:34;29.35;;;15.82;;
35114;SDS011;21292;52.416;13.046;2024-03-02T14:17:03;28.38;;;14.88;;
35114;SDS011;21292;52.416;13.046;2024-03-02T14:19:33;26.35;;;13.63;;